sensor_id;sensor_type;location;lat;lon;timestamp;P1;durP1;ratioP1;P2;durP2;ratioP2
52188;SDS011;38162;45.926;13.608;2023-02-15T00:00:15;46.53;;;28.47;;
52188;SDS011;38162;45.926;13.608;2023-02-15T00:02:41;49.30;;;30.17;;
52188;SDS011;38162;45.926;13.608;2023-02-15T00:05:07;39.87;;;25.23;;
52188;SDS011;38162;45.926;13.608;2023-02-15T00:07:33;39.17;;;24.33;;
52188;SDS011;38162;45.926;13.608;2023-02-15T00:09:59;41.37;;;25.53;;
52188;SDS011;38162;45.926;13.608;2023-02-15T00:12:24;33.43;;;20.30;;
52188;SDS011;38162;45.926;13.608;2023-02-15T00:14:50;42.00;;;24.23;;
52188;SDS011;38162;45.926;13.608;2023-02-15T00:17:16;35.47;;;21.80;;
52188;SDS011;38162;45.926;13.608;2023-02-15T00:19:41;35.90;;;24.30;;
52188;SDS011;38162;45.926;13.608;2023-02-15T00:22:07;38.63;;;24.60;;
52188;SDS011;38162;45.926;13.608;2023-02-15T00:24:33;45.90;;;29.63;;
52188;SDS011;38162;45.926;13.608;2023-02-15T00:26:59;42.73;;;27.63;;
52188;SDS011;38162;45.926;13.608;2023-02-15T00:29:24;48.83;;;31.00;;
52188;SDS011;38162;45.926;13.608;2023-02-15T00:31:50;50.37;;;31.37;;
52188;SDS011;38162;45.926;13.608;2023-02-15T00:34:18;52.83;;;33.63;;
52188;SDS011;38162;45.926;13.608;2023-02-15T00:36:48;52.03;;;31.93;;
52188;SDS011;38162;45.926;13.608;2023-02-15T00:39:15;50.63;;;31.13;;
52188;SDS011;38162;45.926;13.608;2023-02-15T00:41:41;52.23;;;32.57;;
52188;SDS011;38162;45.926;13.608;2023-02-15T00:44:07;51.13;;;31.53;;
52188;SDS011;38162;45.926;13.608;2023-02-15T00:46:33;59.00;;;32.30;;
52188;SDS011;38162;45.926;13.608;2023-02-15T00:48:59;53.87;;;32.00;;
52188;SDS011;38162;45.926;13.608;2023-02-15T00:51:25;48.50;;;30.53;;
52188;SDS011;38162;45.926;13.608;2023-02-15T00:53:51;52.17;;;32.83;;
52188;SDS011;38162;45.926;13.608;2023-02-15T00:56:17;51.57;;;28.03;;
52188;SDS011;38162;45.926;13.608;2023-02-15T00:58:43;36.87;;;21.00;;
52188;SDS011;38162;45.926;13.608;2023-02-15T01:01:13;37.60;;;22.20;;
52188;SDS011;38162;45.926;13.608;2023-02-15T01:03:40;33.10;;;20.67;;
52188;SDS011;38162;45.926;13.608;2023-02-15T01:06:10;35.10;;;21.23;;
52188;SDS011;38162;45.926;13.608;2023-02-15T01:08:36;32.23;;;21.30;;
52188;SDS011;38162;45.926;13.608;2023-02-15T01:11:09;31.83;;;21.80;;
52188;SDS011;38162;45.926;13.608;2023-02-15T01:13:36;45.30;;;23.57;;
52188;SDS011;38162;45.926;13.608;2023-02-15T01:16:03;37.63;;;22.73;;
52188;SDS011;38162;45.926;13.608;2023-02-15T01:18:29;41.47;;;24.50;;
52188;SDS011;38162;45.926;13.608;2023-02-15T01:20:55;37.80;;;25.30;;
52188;SDS011;38162;45.926;13.608;2023-02-15T01:23:22;39.83;;;26.27;;
52188;SDS011;38162;45.926;13.608;2023-02-15T01:25:48;41.10;;;26.50;;
52188;SDS011;38162;45.926;13.608;2023-02-15T01:28:13;44.13;;;27.73;;
52188;SDS011;38162;45.926;13.608;2023-02-15T01:30:39;46.00;;;28.80;;
52188;SDS011;38162;45.926;13.608;2023-02-15T01:33:05;42.97;;;27.37;;
52188;SDS011;38162;45.926;13.608;2023-02-15T01:35:31;45.00;;;27.67;;
52188;SDS011;38162;45.926;13.608;2023-02-15T01:37:57;43.70;;;27.50;;
52188;SDS011;38162;45.926;13.608;2023-02-15T01:40:23;45.37;;;25.77;;
52188;SDS011;38162;45.926;13.608;2023-02-15T01:42:52;42.53;;;25.30;;
52188;SDS011;38162;45.926;13.608;2023-02-15T01:45:25;44.73;;;24.87;;
52188;SDS011;38162;45.926;13.608;2023-02-15T01:50:47;33.70;;;20.97;;
52188;SDS011;38162;45.926;13.608;2023-02-15T01:53:36;18.33;;;12.10;;
52188;SDS011;38162;45.926;13.608;2023-02-15T01:56:27;18.20;;;10.80;;
52188;SDS011;38162;45.926;13.608;2023-02-15T01:58:54;21.40;;;13.97;;
52188;SDS011;38162;45.926;13.608;2023-02-15T02:01:23;19.80;;;10.83;;
52188;SDS011;38162;45.926;13.608;2023-02-15T02:06:20;21.23;;;14.40;;
52188;SDS011;38162;45.926;13.608;2023-02-15T02:08:46;29.60;;;16.77;;
52188;SDS011;38162;45.926;13.608;2023-02-15T02:11:13;27.87;;;17.97;;
52188;SDS011;38162;45.926;13.608;2023-02-15T02:13:40;28.50;;;17.87;;
52188;SDS011;38162;45.926;13.608;2023-02-15T02:16:21;30.33;;;18.90;;
52188;SDS011;38162;45.926;13.608;2023-02-15T02:19:18;29.77;;;20.57;;
52188;SDS011;38162;45.926;13.608;2023-02-15T02:27:08;18.27;;;11.17;;
52188;SDS011;38162;45.926;13.608;2023-02-15T02:38:11;14.30;;;9.27;;
52188;SDS011;38162;45.926;13.608;2023-02-15T02:43:32;14.50;;;8.83;;
52188;SDS011;38162;45.926;13.608;2023-02-15T02:46:22;17.50;;;8.63;;
52188;SDS011;38162;45.926;13.608;2023-02-15T02:48:53;13.37;;;8.50;;
52188;SDS011;38162;45.926;13.608;2023-02-15T02:51:19;16.13;;;10.17;;
52188;SDS011;38162;45.926;13.608;2023-02-15T02:53:50;14.37;;;9.20;;
52188;SDS011;38162;45.926;13.608;2023-02-15T02:56:21;16.20;;;8.77;;
52188;SDS011;38162;45.926;13.608;2023-02-15T02:59:20;13.60;;;8.63;;
52188;SDS011;38162;45.926;13.608;2023-02-15T03:01:55;20.57;;;12.07;;
52188;SDS011;38162;45.926;13.608;2023-02-15T03:04:31;24.23;;;15.20;;
52188;SDS011;38162;45.926;13.608;2023-02-15T03:07:03;22.60;;;15.10;;
52188;SDS011;38162;45.926;13.608;2023-02-15T03:09:39;26.53;;;15.73;;
52188;SDS011;38162;45.926;13.608;2023-02-15T03:12:11;27.30;;;15.10;;
52188;SDS011;38162;45.926;13.608;2023-02-15T03:14:47;21.43;;;14.77;;
52188;SDS011;38162;45.926;13.608;2023-02-15T03:17:16;24.60;;;15.73;;
52188;SDS011;38162;45.926;13.608;2023-02-15T03:19:44;27.67;;;17.10;;
52188;SDS011;38162;45.926;13.608;2023-02-15T03:22:14;25.07;;;16.33;;
52188;SDS011;38162;45.926;13.608;2023-02-15T03:27:45;21.47;;;14.50;;
52188;SDS011;38162;45.926;13.608;2023-02-15T03:30:15;26.20;;;16.03;;
52188;SDS011;38162;45.926;13.608;2023-02-15T03:32:44;26.00;;;15.47;;
52188;SDS011;38162;45.926;13.608;2023-02-15T03:35:12;25.63;;;16.10;;
52188;SDS011;38162;45.926;13.608;2023-02-15T03:37:39;20.73;;;13.90;;
52188;SDS011;38162;45.926;13.608;2023-02-15T03:45:31;24.93;;;14.57;;
52188;SDS011;38162;45.926;13.608;2023-02-15T03:47:57;23.20;;;14.67;;
52188;SDS011;38162;45.926;13.608;2023-02-15T03:50:27;25.23;;;14.70;;
52188;SDS011;38162;45.926;13.608;2023-02-15T03:53:22;23.07;;;13.93;;
52188;SDS011;38162;45.926;13.608;2023-02-15T03:55:52;23.47;;;14.17;;
52188;SDS011;38162;45.926;13.608;2023-02-15T03:58:19;21.93;;;13.70;;
52188;SDS011;38162;45.926;13.608;2023-02-15T04:01:05;20.57;;;11.80;;
52188;SDS011;38162;45.926;13.608;2023-02-15T04:04:01;21.03;;;12.83;;
52188;SDS011;38162;45.926;13.608;2023-02-15T04:06:32;21.33;;;12.50;;
52188;SDS011;38162;45.926;13.608;2023-02-15T04:08:58;21.17;;;12.87;;
52188;SDS011;38162;45.926;13.608;2023-02-15T04:11:42;22.67;;;12.93;;
52188;SDS011;38162;45.926;13.608;2023-02-15T04:14:08;22.77;;;12.27;;
52188;SDS011;38162;45.926;13.608;2023-02-15T04:17:08;18.50;;;11.87;;
52188;SDS011;38162;45.926;13.608;2023-02-15T04:19:34;18.83;;;10.30;;
52188;SDS011;38162;45.926;13.608;2023-02-15T04:22:18;18.90;;;10.60;;
52188;SDS011;38162;45.926;13.608;2023-02-15T04:25:02;21.77;;;9.67;;
52188;SDS011;38162;45.926;13.608;2023-02-15T04:27:38;23.93;;;11.50;;
52188;SDS011;38162;45.926;13.608;2023-02-15T04:30:05;23.60;;;10.53;;
52188;SDS011;38162;45.926;13.608;2023-02-15T04:32:32;23.67;;;11.37;;
52188;SDS011;38162;45.926;13.608;2023-02-15T04:34:59;25.70;;;10.53;;
52188;SDS011;38162;45.926;13.608;2023-02-15T04:37:25;18.63;;;9.73;;
52188;SDS011;38162;45.926;13.608;2023-02-15T04:39:50;22.73;;;11.03;;
52188;SDS011;38162;45.926;13.608;2023-02-15T04:42:16;18.77;;;9.03;;
52188;SDS011;38162;45.926;13.608;2023-02-15T04:44:42;19.70;;;8.73;;
52188;SDS011;38162;45.926;13.608;2023-02-15T04:47:08;16.43;;;8.97;;
52188;SDS011;38162;45.926;13.608;2023-02-15T04:49:33;14.73;;;9.07;;
52188;SDS011;38162;45.926;13.608;2023-02-15T04:51:59;14.93;;;8.40;;
52188;SDS011;38162;45.926;13.608;2023-02-15T04:54:25;12.83;;;7.97;;
52188;SDS011;38162;45.926;13.608;2023-02-15T04:56:50;17.60;;;7.73;;
52188;SDS011;38162;45.926;13.608;2023-02-15T04:59:16;15.17;;;8.70;;
52188;SDS011;38162;45.926;13.608;2023-02-15T05:01:42;13.20;;;8.63;;
52188;SDS011;38162;45.926;13.608;2023-02-15T05:04:07;13.97;;;9.03;;
52188;SDS011;38162;45.926;13.608;2023-02-15T05:06:33;13.73;;;8.13;;
52188;SDS011;38162;45.926;13.608;2023-02-15T05:08:58;13.30;;;8.37;;
52188;SDS011;38162;45.926;13.608;2023-02-15T05:11:25;14.97;;;8.43;;
52188;SDS011;38162;45.926;13.608;2023-02-15T05:13:51;13.20;;;8.63;;
52188;SDS011;38162;45.926;13.608;2023-02-15T05:16:16;13.20;;;8.33;;
52188;SDS011;38162;45.926;13.608;2023-02-15T05:18:42;14.17;;;8.37;;
52188;SDS011;38162;45.926;13.608;2023-02-15T05:21:08;15.87;;;9.17;;
52188;SDS011;38162;45.926;13.608;2023-02-15T05:23:34;14.90;;;8.33;;
52188;SDS011;38162;45.926;13.608;2023-02-15T05:26:00;17.00;;;10.37;;
52188;SDS011;38162;45.926;13.608;2023-02-15T05:28:44;18.37;;;11.20;;
52188;SDS011;38162;45.926;13.608;2023-02-15T05:31:11;27.83;;;12.57;;
52188;SDS011;38162;45.926;13.608;2023-02-15T05:33:39;20.83;;;12.07;;
52188;SDS011;38162;45.926;13.608;2023-02-15T05:36:05;21.23;;;11.70;;
52188;SDS011;38162;45.926;13.608;2023-02-15T05:38:32;25.33;;;12.53;;
52188;SDS011;38162;45.926;13.608;2023-02-15T05:40:58;21.00;;;12.67;;
52188;SDS011;38162;45.926;13.608;2023-02-15T05:43:24;21.57;;;11.60;;
52188;SDS011;38162;45.926;13.608;2023-02-15T05:45:51;18.87;;;11.13;;
52188;SDS011;38162;45.926;13.608;2023-02-15T05:48:20;17.73;;;10.70;;
52188;SDS011;38162;45.926;13.608;2023-02-15T05:50:56;19.50;;;10.23;;
52188;SDS011;38162;45.926;13.608;2023-02-15T05:53:33;17.73;;;9.87;;
52188;SDS011;38162;45.926;13.608;2023-02-15T05:56:00;14.43;;;9.10;;
52188;SDS011;38162;45.926;13.608;2023-02-15T05:58:34;15.70;;;9.13;;
52188;SDS011;38162;45.926;13.608;2023-02-15T06:01:11;15.37;;;8.57;;
52188;SDS011;38162;45.926;13.608;2023-02-15T06:03:37;13.93;;;8.77;;
52188;SDS011;38162;45.926;13.608;2023-02-15T06:06:03;14.97;;;9.03;;
52188;SDS011;38162;45.926;13.608;2023-02-15T06:08:30;12.67;;;8.97;;
52188;SDS011;38162;45.926;13.608;2023-02-15T06:10:56;25.43;;;12.40;;
52188;SDS011;38162;45.926;13.608;2023-02-15T06:13:22;22.57;;;12.13;;
52188;SDS011;38162;45.926;13.608;2023-02-15T06:15:47;24.17;;;12.20;;
52188;SDS011;38162;45.926;13.608;2023-02-15T06:18:13;21.03;;;12.30;;
52188;SDS011;38162;45.926;13.608;2023-02-15T06:20:39;23.23;;;11.73;;
52188;SDS011;38162;45.926;13.608;2023-02-15T06:23:04;17.67;;;10.67;;
52188;SDS011;38162;45.926;13.608;2023-02-15T06:25:30;19.60;;;9.73;;
52188;SDS011;38162;45.926;13.608;2023-02-15T06:27:56;16.50;;;9.83;;
52188;SDS011;38162;45.926;13.608;2023-02-15T06:30:21;13.60;;;9.27;;
52188;SDS011;38162;45.926;13.608;2023-02-15T06:32:47;15.60;;;10.00;;
52188;SDS011;38162;45.926;13.608;2023-02-15T06:35:13;18.07;;;10.07;;
52188;SDS011;38162;45.926;13.608;2023-02-15T06:37:38;20.10;;;9.67;;
52188;SDS011;38162;45.926;13.608;2023-02-15T06:40:04;13.97;;;9.03;;
52188;SDS011;38162;45.926;13.608;2023-02-15T06:42:31;17.77;;;9.67;;
52188;SDS011;38162;45.926;13.608;2023-02-15T06:44:57;17.03;;;10.10;;
52188;SDS011;38162;45.926;13.608;2023-02-15T06:47:24;15.17;;;8.93;;
52188;SDS011;38162;45.926;13.608;2023-02-15T06:49:49;15.43;;;9.20;;
52188;SDS011;38162;45.926;13.608;2023-02-15T06:52:15;19.33;;;10.60;;
52188;SDS011;38162;45.926;13.608;2023-02-15T06:54:40;20.10;;;11.77;;
52188;SDS011;38162;45.926;13.608;2023-02-15T06:57:06;24.43;;;12.20;;
52188;SDS011;38162;45.926;13.608;2023-02-15T06:59:32;24.83;;;12.83;;
52188;SDS011;38162;45.926;13.608;2023-02-15T07:01:57;31.10;;;12.40;;
52188;SDS011;38162;45.926;13.608;2023-02-15T07:04:23;34.50;;;13.03;;
52188;SDS011;38162;45.926;13.608;2023-02-15T07:06:49;29.00;;;13.03;;
52188;SDS011;38162;45.926;13.608;2023-02-15T07:09:15;26.17;;;13.30;;
52188;SDS011;38162;45.926;13.608;2023-02-15T07:11:41;30.40;;;12.70;;
52188;SDS011;38162;45.926;13.608;2023-02-15T07:14:25;23.97;;;13.77;;
52188;SDS011;38162;45.926;13.608;2023-02-15T07:16:51;23.40;;;13.13;;
52188;SDS011;38162;45.926;13.608;2023-02-15T07:19:16;29.47;;;13.33;;
52188;SDS011;38162;45.926;13.608;2023-02-15T07:21:43;27.77;;;12.60;;
52188;SDS011;38162;45.926;13.608;2023-02-15T07:24:10;27.93;;;13.30;;
52188;SDS011;38162;45.926;13.608;2023-02-15T07:26:36;31.17;;;12.53;;
52188;SDS011;38162;45.926;13.608;2023-02-15T07:29:02;25.70;;;12.93;;
52188;SDS011;38162;45.926;13.608;2023-02-15T07:31:27;23.83;;;12.03;;
52188;SDS011;38162;45.926;13.608;2023-02-15T07:33:53;22.90;;;12.67;;
52188;SDS011;38162;45.926;13.608;2023-02-15T07:36:19;23.00;;;12.23;;
52188;SDS011;38162;45.926;13.608;2023-02-15T07:38:44;24.00;;;12.60;;
52188;SDS011;38162;45.926;13.608;2023-02-15T07:41:11;24.37;;;12.47;;
52188;SDS011;38162;45.926;13.608;2023-02-15T07:43:42;31.93;;;12.93;;
52188;SDS011;38162;45.926;13.608;2023-02-15T07:46:10;19.93;;;12.57;;
52188;SDS011;38162;45.926;13.608;2023-02-15T07:48:38;22.13;;;12.87;;
52188;SDS011;38162;45.926;13.608;2023-02-15T07:51:06;19.47;;;12.93;;
52188;SDS011;38162;45.926;13.608;2023-02-15T07:53:32;23.20;;;11.93;;
52188;SDS011;38162;45.926;13.608;2023-02-15T07:56:02;32.30;;;13.27;;
52188;SDS011;38162;45.926;13.608;2023-02-15T07:58:31;26.15;;;13.52;;
52188;SDS011;38162;45.926;13.608;2023-02-15T08:01:15;22.47;;;11.67;;
52188;SDS011;38162;45.926;13.608;2023-02-15T08:03:42;32.63;;;14.13;;
52188;SDS011;38162;45.926;13.608;2023-02-15T08:06:07;27.00;;;13.53;;
52188;SDS011;38162;45.926;13.608;2023-02-15T08:08:34;32.47;;;14.50;;
52188;SDS011;38162;45.926;13.608;2023-02-15T08:11:05;28.43;;;14.77;;
52188;SDS011;38162;45.926;13.608;2023-02-15T08:13:57;31.00;;;15.07;;
52188;SDS011;38162;45.926;13.608;2023-02-15T08:16:32;36.93;;;14.83;;
52188;SDS011;38162;45.926;13.608;2023-02-15T08:19:01;28.53;;;13.30;;
52188;SDS011;38162;45.926;13.608;2023-02-15T08:21:37;20.77;;;11.57;;
52188;SDS011;38162;45.926;13.608;2023-02-15T08:24:05;16.90;;;9.33;;
52188;SDS011;38162;45.926;13.608;2023-02-15T08:26:32;17.87;;;9.30;;
52188;SDS011;38162;45.926;13.608;2023-02-15T08:28:59;17.27;;;9.43;;
52188;SDS011;38162;45.926;13.608;2023-02-15T08:31:25;15.53;;;9.00;;
52188;SDS011;38162;45.926;13.608;2023-02-15T08:33:52;14.33;;;9.27;;
52188;SDS011;38162;45.926;13.608;2023-02-15T08:36:20;12.63;;;8.87;;
52188;SDS011;38162;45.926;13.608;2023-02-15T08:38:47;16.93;;;9.20;;
52188;SDS011;38162;45.926;13.608;2023-02-15T08:43:40;15.13;;;8.33;;
52188;SDS011;38162;45.926;13.608;2023-02-15T08:46:07;12.93;;;8.30;;
52188;SDS011;38162;45.926;13.608;2023-02-15T08:48:33;15.03;;;8.63;;
52188;SDS011;38162;45.926;13.608;2023-02-15T08:51:03;16.07;;;8.40;;
52188;SDS011;38162;45.926;13.608;2023-02-15T08:53:31;16.80;;;9.40;;
52188;SDS011;38162;45.926;13.608;2023-02-15T08:55:57;13.50;;;8.97;;
52188;SDS011;38162;45.926;13.608;2023-02-15T08:58:23;15.97;;;8.83;;
52188;SDS011;38162;45.926;13.608;2023-02-15T09:00:49;17.47;;;8.27;;
52188;SDS011;38162;45.926;13.608;2023-02-15T09:03:15;19.97;;;8.37;;
52188;SDS011;38162;45.926;13.608;2023-02-15T09:05:41;13.43;;;7.93;;
52188;SDS011;38162;45.926;13.608;2023-02-15T09:08:06;15.17;;;8.57;;
52188;SDS011;38162;45.926;13.608;2023-02-15T09:10:32;15.70;;;8.60;;
52188;SDS011;38162;45.926;13.608;2023-02-15T09:12:58;18.13;;;8.23;;
52188;SDS011;38162;45.926;13.608;2023-02-15T09:15:23;15.70;;;7.73;;
52188;SDS011;38162;45.926;13.608;2023-02-15T09:17:49;13.43;;;7.70;;
52188;SDS011;38162;45.926;13.608;2023-02-15T09:20:15;14.80;;;8.23;;
52188;SDS011;38162;45.926;13.608;2023-02-15T09:22:40;13.00;;;8.20;;
52188;SDS011;38162;45.926;13.608;2023-02-15T09:25:06;16.70;;;8.53;;
52188;SDS011;38162;45.926;13.608;2023-02-15T09:27:32;16.93;;;11.20;;
52188;SDS011;38162;45.926;13.608;2023-02-15T09:29:58;19.00;;;10.63;;
52188;SDS011;38162;45.926;13.608;2023-02-15T09:32:24;23.57;;;11.53;;
52188;SDS011;38162;45.926;13.608;2023-02-15T09:34:50;18.23;;;10.10;;
52188;SDS011;38162;45.926;13.608;2023-02-15T09:37:15;20.30;;;9.90;;
52188;SDS011;38162;45.926;13.608;2023-02-15T09:39:42;17.23;;;10.20;;
52188;SDS011;38162;45.926;13.608;2023-02-15T10:01:40;22.60;;;8.18;;
52188;SDS011;38162;45.926;13.608;2023-02-15T10:10:03;14.32;;;9.10;;
52188;SDS011;38162;45.926;13.608;2023-02-15T10:12:49;13.65;;;9.00;;
52188;SDS011;38162;45.926;13.608;2023-02-15T10:21:00;15.32;;;8.13;;
52188;SDS011;38162;45.926;13.608;2023-02-15T10:29:18;13.27;;;7.75;;
52188;SDS011;38162;45.926;13.608;2023-02-15T10:37:26;12.32;;;8.30;;
52188;SDS011;38162;45.926;13.608;2023-02-15T10:45:12;11.52;;;7.95;;
52188;SDS011;38162;45.926;13.608;2023-02-15T10:48:04;11.88;;;8.07;;
52188;SDS011;38162;45.926;13.608;2023-02-15T10:55:55;13.00;;;8.27;;
52188;SDS011;38162;45.926;13.608;2023-02-15T10:58:36;12.23;;;7.82;;
52188;SDS011;38162;45.926;13.608;2023-02-15T11:06:18;10.13;;;6.82;;
52188;SDS011;38162;45.926;13.608;2023-02-15T11:08:50;15.85;;;7.90;;
52188;SDS011;38162;45.926;13.608;2023-02-15T11:11:24;12.55;;;6.88;;
52188;SDS011;38162;45.926;13.608;2023-02-15T11:14:14;20.08;;;7.10;;
52188;SDS011;38162;45.926;13.608;2023-02-15T11:16:45;13.82;;;6.82;;
52188;SDS011;38162;45.926;13.608;2023-02-15T11:22:09;12.10;;;6.80;;
52188;SDS011;38162;45.926;13.608;2023-02-15T11:24:41;11.98;;;6.25;;
52188;SDS011;38162;45.926;13.608;2023-02-15T11:29:59;12.45;;;6.95;;
52188;SDS011;38162;45.926;13.608;2023-02-15T11:32:43;12.50;;;7.07;;
52188;SDS011;38162;45.926;13.608;2023-02-15T11:38:21;12.45;;;6.53;;
52188;SDS011;38162;45.926;13.608;2023-02-15T11:40:45;13.20;;;5.80;;
52188;SDS011;38162;45.926;13.608;2023-02-15T11:43:23;11.60;;;6.18;;
52188;SDS011;38162;45.926;13.608;2023-02-15T11:46:02;10.55;;;5.88;;
52188;SDS011;38162;45.926;13.608;2023-02-15T11:48:29;11.75;;;5.93;;
52188;SDS011;38162;45.926;13.608;2023-02-15T11:50:56;10.30;;;5.82;;
52188;SDS011;38162;45.926;13.608;2023-02-15T11:53:23;9.82;;;5.85;;
52188;SDS011;38162;45.926;13.608;2023-02-15T11:55:52;6.18;;;4.72;;
52188;SDS011;38162;45.926;13.608;2023-02-15T12:00:49;10.07;;;4.78;;
52188;SDS011;38162;45.926;13.608;2023-02-15T12:03:21;11.20;;;5.32;;
52188;SDS011;38162;45.926;13.608;2023-02-15T12:05:57;6.47;;;4.63;;
52188;SDS011;38162;45.926;13.608;2023-02-15T12:08:26;10.02;;;5.35;;
52188;SDS011;38162;45.926;13.608;2023-02-15T12:11:15;9.70;;;4.75;;
52188;SDS011;38162;45.926;13.608;2023-02-15T12:13:56;6.85;;;5.00;;
52188;SDS011;38162;45.926;13.608;2023-02-15T12:16:27;9.20;;;4.05;;
52188;SDS011;38162;45.926;13.608;2023-02-15T12:18:57;8.23;;;4.40;;
52188;SDS011;38162;45.926;13.608;2023-02-15T12:21:27;7.70;;;4.28;;
52188;SDS011;38162;45.926;13.608;2023-02-15T12:24:21;8.90;;;5.10;;
52188;SDS011;38162;45.926;13.608;2023-02-15T12:26:56;5.72;;;4.35;;
52188;SDS011;38162;45.926;13.608;2023-02-15T12:29:26;9.30;;;5.40;;
52188;SDS011;38162;45.926;13.608;2023-02-15T12:31:55;6.50;;;4.68;;
52188;SDS011;38162;45.926;13.608;2023-02-15T12:34:24;5.22;;;3.95;;
52188;SDS011;38162;45.926;13.608;2023-02-15T12:36:57;14.40;;;4.55;;
52188;SDS011;38162;45.926;13.608;2023-02-15T12:39:28;6.95;;;4.55;;
52188;SDS011;38162;45.926;13.608;2023-02-15T12:41:59;8.52;;;4.38;;
52188;SDS011;38162;45.926;13.608;2023-02-15T12:44:54;7.28;;;3.92;;
52188;SDS011;38162;45.926;13.608;2023-02-15T12:47:25;8.95;;;4.72;;
52188;SDS011;38162;45.926;13.608;2023-02-15T12:50:13;8.38;;;4.70;;
52188;SDS011;38162;45.926;13.608;2023-02-15T12:52:48;7.47;;;5.22;;
52188;SDS011;38162;45.926;13.608;2023-02-15T13:00:42;6.10;;;4.55;;
52188;SDS011;38162;45.926;13.608;2023-02-15T13:03:15;8.93;;;4.68;;
52188;SDS011;38162;45.926;13.608;2023-02-15T13:05:44;10.25;;;4.28;;
52188;SDS011;38162;45.926;13.608;2023-02-15T13:08:16;15.05;;;5.82;;
52188;SDS011;38162;45.926;13.608;2023-02-15T13:10:54;13.82;;;5.13;;
52188;SDS011;38162;45.926;13.608;2023-02-15T13:13:22;8.50;;;4.72;;
52188;SDS011;38162;45.926;13.608;2023-02-15T13:15:51;7.28;;;4.93;;
52188;SDS011;38162;45.926;13.608;2023-02-15T13:18:40;9.73;;;4.80;;
52188;SDS011;38162;45.926;13.608;2023-02-15T13:21:13;6.80;;;4.22;;
52188;SDS011;38162;45.926;13.608;2023-02-15T13:23:47;7.65;;;4.45;;
52188;SDS011;38162;45.926;13.608;2023-02-15T13:26:20;7.57;;;4.70;;
52188;SDS011;38162;45.926;13.608;2023-02-15T13:28:49;9.77;;;5.18;;
52188;SDS011;38162;45.926;13.608;2023-02-15T13:31:19;8.98;;;5.15;;
52188;SDS011;38162;45.926;13.608;2023-02-15T13:33:53;10.55;;;5.55;;
52188;SDS011;38162;45.926;13.608;2023-02-15T13:39:20;8.32;;;5.55;;
52188;SDS011;38162;45.926;13.608;2023-02-15T13:44:57;10.05;;;6.25;;
52188;SDS011;38162;45.926;13.608;2023-02-15T13:47:30;10.07;;;5.97;;
52188;SDS011;38162;45.926;13.608;2023-02-15T13:55:57;8.50;;;5.65;;
52188;SDS011;38162;45.926;13.608;2023-02-15T13:58:43;9.52;;;7.07;;
52188;SDS011;38162;45.926;13.608;2023-02-15T14:01:19;15.90;;;7.50;;
52188;SDS011;38162;45.926;13.608;2023-02-15T14:06:36;19.50;;;10.07;;
52188;SDS011;38162;45.926;13.608;2023-02-15T14:20:08;16.10;;;11.32;;
52188;SDS011;38162;45.926;13.608;2023-02-15T14:22:44;15.20;;;10.88;;
52188;SDS011;38162;45.926;13.608;2023-02-15T14:28:49;16.33;;;10.85;;
52188;SDS011;38162;45.926;13.608;2023-02-15T14:31:00;28.80;;;13.88;;
52188;SDS011;38162;45.926;13.608;2023-02-15T14:36:00;17.70;;;11.75;;
52188;SDS011;38162;45.926;13.608;2023-02-15T14:41:17;17.20;;;11.90;;
52188;SDS011;38162;45.926;13.608;2023-02-15T14:46:58;22.85;;;15.73;;
52188;SDS011;38162;45.926;13.608;2023-02-15T14:49:36;21.45;;;16.13;;
52188;SDS011;38162;45.926;13.608;2023-02-15T14:52:04;19.52;;;13.95;;
52188;SDS011;38162;45.926;13.608;2023-02-15T14:59:49;21.08;;;13.57;;
52188;SDS011;38162;45.926;13.608;2023-02-15T15:05:32;28.02;;;15.20;;
52188;SDS011;38162;45.926;13.608;2023-02-15T15:08:01;26.55;;;15.25;;
52188;SDS011;38162;45.926;13.608;2023-02-15T15:12:58;26.13;;;15.40;;
52188;SDS011;38162;45.926;13.608;2023-02-15T15:15:56;25.00;;;15.57;;
52188;SDS011;38162;45.926;13.608;2023-02-15T15:21:50;29.67;;;16.00;;
52188;SDS011;38162;45.926;13.608;2023-02-15T15:41:08;45.47;;;22.17;;
52188;SDS011;38162;45.926;13.608;2023-02-15T15:49:47;37.75;;;23.25;;
52188;SDS011;38162;45.926;13.608;2023-02-15T15:52:17;46.85;;;24.27;;
52188;SDS011;38162;45.926;13.608;2023-02-15T15:54:46;43.25;;;24.60;;
52188;SDS011;38162;45.926;13.608;2023-02-15T15:57:37;45.65;;;25.95;;
52188;SDS011;38162;45.926;13.608;2023-02-15T16:00:04;43.72;;;26.95;;
52188;SDS011;38162;45.926;13.608;2023-02-15T16:02:50;44.60;;;27.35;;
52188;SDS011;38162;45.926;13.608;2023-02-15T16:05:16;46.67;;;27.92;;
52188;SDS011;38162;45.926;13.608;2023-02-15T16:07:42;49.58;;;27.83;;
52188;SDS011;38162;45.926;13.608;2023-02-15T16:10:19;50.58;;;28.75;;
52188;SDS011;38162;45.926;13.608;2023-02-15T16:12:45;50.03;;;29.05;;
52188;SDS011;38162;45.926;13.608;2023-02-15T16:15:15;60.33;;;34.33;;
52188;SDS011;38162;45.926;13.608;2023-02-15T16:17:44;52.63;;;32.35;;
52188;SDS011;38162;45.926;13.608;2023-02-15T16:22:40;63.42;;;40.33;;
52188;SDS011;38162;45.926;13.608;2023-02-15T16:27:46;57.97;;;36.80;;
52188;SDS011;38162;45.926;13.608;2023-02-15T16:32:55;87.10;;;52.75;;
52188;SDS011;38162;45.926;13.608;2023-02-15T16:35:29;82.68;;;50.15;;
52188;SDS011;38162;45.926;13.608;2023-02-15T16:37:55;95.93;;;57.33;;
52188;SDS011;38162;45.926;13.608;2023-02-15T16:42:56;95.82;;;59.30;;
52188;SDS011;38162;45.926;13.608;2023-02-15T16:45:26;77.53;;;46.40;;
52188;SDS011;38162;45.926;13.608;2023-02-15T16:47:54;58.75;;;34.90;;
52188;SDS011;38162;45.926;13.608;2023-02-15T16:50:24;56.08;;;32.00;;
52188;SDS011;38162;45.926;13.608;2023-02-15T16:52:55;55.90;;;30.50;;
52188;SDS011;38162;45.926;13.608;2023-02-15T16:55:26;55.00;;;30.08;;
52188;SDS011;38162;45.926;13.608;2023-02-15T16:58:02;50.88;;;31.52;;
52188;SDS011;38162;45.926;13.608;2023-02-15T17:00:31;55.67;;;32.97;;
52188;SDS011;38162;45.926;13.608;2023-02-15T17:03:01;58.45;;;31.40;;
52188;SDS011;38162;45.926;13.608;2023-02-15T17:05:46;57.53;;;32.13;;
52188;SDS011;38162;45.926;13.608;2023-02-15T17:08:24;54.22;;;31.90;;
52188;SDS011;38162;45.926;13.608;2023-02-15T17:13:23;60.40;;;34.60;;
52188;SDS011;38162;45.926;13.608;2023-02-15T17:18:24;60.55;;;37.00;;
52188;SDS011;38162;45.926;13.608;2023-02-15T17:20:57;61.80;;;40.22;;
52188;SDS011;38162;45.926;13.608;2023-02-15T17:23:36;63.33;;;43.85;;
52188;SDS011;38162;45.926;13.608;2023-02-15T17:28:45;67.63;;;49.45;;
52188;SDS011;38162;45.926;13.608;2023-02-15T17:31:21;61.38;;;42.47;;
52188;SDS011;38162;45.926;13.608;2023-02-15T17:33:51;62.00;;;45.22;;
52188;SDS011;38162;45.926;13.608;2023-02-15T17:36:22;63.80;;;43.45;;
52188;SDS011;38162;45.926;13.608;2023-02-15T17:41:26;58.92;;;39.08;;
52188;SDS011;38162;45.926;13.608;2023-02-15T17:43:53;55.00;;;35.53;;
52188;SDS011;38162;45.926;13.608;2023-02-15T17:46:20;52.25;;;36.05;;
52188;SDS011;38162;45.926;13.608;2023-02-15T17:48:50;53.75;;;33.97;;
52188;SDS011;38162;45.926;13.608;2023-02-15T17:51:17;53.10;;;33.20;;
52188;SDS011;38162;45.926;13.608;2023-02-15T17:53:44;48.03;;;32.47;;
52188;SDS011;38162;45.926;13.608;2023-02-15T17:56:31;48.47;;;34.40;;